Jardine, Montana
Current Conditions -  °F | °C
As of 2:53 AM on Thursday 23 Oct 2014 (Local Time) from KLVM Reporting Station
Clear Clear  
Wind Chill: 52°   Ceiling: Unl
Heat Index: 52°   Visibility: 10mi
Dew Point: 24°   Wind: 28mph
Humidity: 34%   Direction: 210°SSW
Pressure: 29.94"   Gusts: 46mph
Location:  45.0924°N, 110.236°W
Report Text: KLVM 230853Z AUTO 21024G40KT 10SM CLR 11/M04 A2994 RMK AO2 PK WND 22043/0833 SLP117 T01111044 56014
Loading
Personal Weather Stations






























Interactive Weather Map
Tropical Storm Tracking
New forecast layout! Learn more

10-Day Weather Forecast

Advertisements
Track Severe Weather on mobile